createdAt,value
2023-05-03T00:01:58.287Z,76.70
2023-05-03T00:04:25.356Z,77.10
2023-05-03T00:06:52.119Z,77.10
2023-05-03T00:09:18.857Z,77.40
2023-05-03T00:11:45.489Z,78.00
2023-05-03T00:14:12.561Z,77.90
2023-05-03T00:16:39.269Z,77.80
2023-05-03T00:19:06.562Z,77.80
2023-05-03T00:21:34.857Z,78.10
2023-05-03T00:24:01.512Z,78.20
2023-05-03T00:26:28.594Z,78.60
2023-05-03T00:28:55.314Z,78.70
2023-05-03T00:31:22.058Z,79.90
2023-05-03T00:33:48.693Z,80.60
2023-05-03T00:36:15.691Z,81.00
2023-05-03T00:38:42.796Z,81.20
2023-05-03T00:41:10.545Z,81.50
2023-05-03T00:43:37.846Z,80.90
2023-05-03T00:46:15.760Z,80.90
2023-05-03T00:48:44.565Z,81.30
2023-05-03T00:51:14.468Z,81.90
2023-05-03T00:53:42.566Z,81.90
2023-05-03T00:56:10.029Z,81.70
2023-05-03T00:58:40.049Z,81.90
2023-05-03T01:01:07.889Z,82.40
2023-05-03T01:03:37.808Z,82.60
2023-05-03T01:06:33.908Z,83.00
2023-05-03T01:09:17.183Z,83.40
2023-05-03T01:12:35.910Z,83.80
2023-05-03T01:15:25.698Z,84.20
2023-05-03T01:18:04.063Z,84.50
2023-05-03T01:20:32.825Z,85.10
2023-05-03T01:22:59.398Z,85.00
2023-05-03T01:25:29.303Z,85.10
2023-05-03T01:27:55.923Z,84.90
2023-05-03T01:30:26.729Z,84.70
2023-05-03T01:33:12.926Z,84.90
2023-05-03T01:35:44.273Z,85.30
2023-05-03T01:38:13.213Z,85.90
2023-05-03T01:40:48.568Z,85.80
2023-05-03T01:43:18.016Z,85.90
2023-05-03T01:45:44.857Z,86.20
2023-05-03T01:48:15.329Z,86.30
2023-05-03T01:50:42.022Z,86.40
2023-05-03T01:53:08.754Z,86.30
2023-05-03T01:55:35.581Z,86.30
2023-05-03T01:58:02.257Z,86.30
2023-05-03T02:00:29.006Z,86.70
2023-05-03T02:02:55.745Z,87.10
2023-05-03T02:05:22.557Z,87.30
2023-05-03T02:07:49.255Z,87.80
2023-05-03T02:10:16.246Z,87.80
2023-05-03T02:12:46.488Z,88.00
2023-05-03T02:15:13.906Z,87.60
2023-05-03T02:17:42.472Z,87.70
2023-05-03T02:20:12.528Z,88.10
2023-05-03T02:22:39.341Z,87.90
2023-05-03T02:25:06.814Z,87.90
2023-05-03T02:27:33.651Z,87.90
2023-05-03T02:30:01.418Z,87.90
2023-05-03T02:32:28.528Z,88.00
2023-05-03T02:34:55.599Z,87.90
2023-05-03T02:37:22.225Z,88.90
2023-05-03T02:39:48.874Z,88.00
2023-05-03T02:42:16.090Z,88.20
2023-05-03T02:44:42.850Z,88.20
2023-05-03T02:47:10.510Z,88.40
2023-05-03T02:49:37.252Z,88.70
2023-05-03T02:52:03.990Z,89.00
2023-05-03T02:54:31.338Z,89.40
2023-05-03T02:56:57.967Z,89.50
2023-05-03T02:59:24.627Z,89.70
2023-05-03T03:01:51.302Z,90.00
2023-05-03T03:04:18.013Z,90.20
2023-05-03T03:06:44.703Z,90.30
2023-05-03T03:09:12.629Z,90.40
2023-05-03T03:11:39.423Z,90.20
2023-05-03T03:14:06.171Z,90.20
2023-05-03T03:16:32.930Z,90.20
2023-05-03T03:18:59.663Z,90.20
2023-05-03T03:21:26.707Z,90.00
2023-05-03T03:23:53.392Z,90.00
2023-05-03T03:26:20.079Z,90.10
2023-05-03T03:28:46.732Z,91.00
2023-05-03T03:31:18.196Z,90.10
2023-05-03T03:33:44.937Z,90.30
2023-05-03T03:36:11.752Z,90.20
2023-05-03T03:38:38.445Z,90.30
2023-05-03T03:41:06.275Z,90.30
2023-05-03T03:43:33.135Z,90.20
2023-05-03T03:45:59.918Z,90.30
2023-05-03T03:48:26.691Z,90.20
2023-05-03T03:50:53.397Z,90.30
2023-05-03T03:53:20.025Z,90.50
2023-05-03T03:55:47.235Z,90.40
2023-05-03T03:58:13.910Z,90.20
2023-05-03T04:00:40.870Z,90.30
2023-05-03T04:03:08.092Z,90.60
2023-05-03T04:05:34.839Z,90.50
2023-05-03T04:08:01.537Z,90.50
2023-05-03T04:10:28.215Z,90.80
2023-05-03T04:12:55.629Z,91.00
2023-05-03T04:15:22.305Z,91.10
2023-05-03T04:17:49.525Z,91.20
2023-05-03T04:20:17.692Z,91.30
2023-05-03T04:22:44.380Z,91.30
2023-05-03T04:25:14.798Z,91.30
2023-05-03T04:27:41.566Z,91.10
2023-05-03T04:30:08.897Z,91.40
2023-05-03T04:32:40.575Z,91.40
2023-05-03T04:35:09.412Z,91.40
2023-05-03T04:37:37.231Z,91.40
2023-05-03T04:40:08.830Z,91.60
2023-05-03T04:42:36.289Z,91.70
2023-05-03T04:45:04.118Z,91.60
2023-05-03T04:47:30.998Z,91.60
2023-05-03T04:49:58.125Z,91.90
2023-05-03T04:52:26.633Z,92.00
2023-05-03T04:54:54.357Z,92.10
2023-05-03T04:57:21.230Z,92.10
2023-05-03T04:59:47.958Z,92.10
2023-05-03T05:02:14.589Z,92.10
2023-05-03T05:04:41.433Z,92.70
2023-05-03T05:07:08.192Z,93.10
2023-05-03T05:09:34.825Z,93.80
2023-05-03T05:12:02.006Z,94.40
2023-05-03T05:14:30.929Z,94.80
2023-05-03T05:16:58.037Z,94.50
2023-05-03T05:19:24.991Z,93.90
2023-05-03T05:21:52.596Z,93.40
2023-05-03T05:24:19.306Z,92.40
2023-05-03T05:26:46.213Z,90.60
2023-05-03T05:29:12.864Z,90.10
2023-05-03T05:31:39.785Z,89.20
2023-05-03T05:34:06.573Z,88.70
2023-05-03T05:36:33.538Z,88.40
2023-05-03T05:39:00.300Z,87.70
2023-05-03T05:41:27.003Z,87.40
2023-05-03T05:43:53.714Z,85.70
2023-05-03T05:46:23.720Z,84.40
2023-05-03T05:48:51.321Z,80.60
2023-05-03T05:51:18.202Z,79.60
2023-05-03T05:53:45.175Z,79.60
2023-05-03T05:56:11.903Z,79.00
2023-05-03T05:58:38.740Z,76.90
2023-05-03T06:01:05.548Z,77.40
2023-05-03T06:03:34.065Z,71.80
2023-05-03T06:06:01.038Z,70.30
2023-05-03T06:08:27.999Z,69.10
2023-05-03T06:10:54.716Z,69.50
2023-05-03T06:13:22.571Z,64.60
2023-05-03T06:15:49.287Z,64.40
2023-05-03T06:18:16.218Z,63.70
2023-05-03T06:20:43.152Z,63.60
2023-05-03T06:23:10.442Z,62.50
2023-05-03T06:25:37.173Z,59.70
2023-05-03T06:28:04.602Z,56.50
2023-05-03T06:30:31.460Z,59.60
2023-05-03T06:32:58.162Z,60.30
2023-05-03T06:35:24.886Z,57.30
2023-05-03T06:37:52.070Z,53.00
2023-05-03T06:40:18.870Z,50.40
2023-05-03T06:42:45.596Z,50.50
2023-05-03T06:45:12.374Z,51.20
2023-05-03T06:47:42.512Z,51.90
2023-05-03T06:50:10.423Z,53.30
2023-05-03T06:52:37.376Z,44.80
2023-05-03T06:55:04.807Z,48.20
2023-05-03T06:57:31.513Z,44.40
2023-05-03T06:59:58.316Z,44.80
2023-05-03T07:02:26.736Z,43.80
2023-05-03T07:04:53.594Z,40.30
2023-05-03T07:07:20.369Z,39.30
2023-05-03T07:09:47.250Z,36.60
2023-05-03T07:12:13.931Z,39.50
2023-05-03T07:14:40.691Z,34.60
2023-05-03T07:17:07.710Z,35.00
2023-05-03T07:19:34.740Z,33.90
2023-05-03T07:22:03.800Z,35.80
2023-05-03T07:24:31.249Z,34.00
2023-05-03T07:27:04.046Z,37.40
2023-05-03T07:29:36.708Z,33.20
2023-05-03T07:32:03.701Z,32.00
2023-05-03T07:34:30.521Z,31.50
2023-05-03T07:36:57.197Z,28.70
2023-05-03T07:39:23.845Z,30.40
2023-05-03T07:41:50.560Z,27.60
2023-05-03T07:44:17.283Z,30.00
2023-05-03T07:46:44.012Z,27.10
2023-05-03T07:49:10.745Z,23.30
2023-05-03T07:51:41.725Z,23.50
2023-05-03T07:54:08.430Z,20.90
2023-05-03T07:56:35.097Z,24.60
2023-05-03T08:01:31.520Z,23.00
2023-05-03T08:03:58.760Z,23.50
2023-05-03T08:06:26.005Z,21.60
2023-05-03T08:08:52.766Z,22.00
2023-05-03T08:11:19.388Z,21.70
2023-05-03T08:13:46.368Z,23.30
2023-05-03T08:16:13.739Z,18.90
2023-05-03T08:18:40.914Z,19.50
2023-05-03T08:21:09.580Z,20.30
2023-05-03T08:23:36.659Z,20.60
2023-05-03T08:26:04.365Z,21.60
2023-05-03T08:28:31.179Z,22.30
2023-05-03T08:30:58.039Z,23.40
2023-05-03T08:33:24.813Z,24.80
2023-05-03T08:35:51.439Z,24.40
2023-05-03T08:38:18.057Z,27.20
2023-05-03T08:40:48.134Z,26.60
2023-05-03T08:43:16.615Z,26.80
2023-05-03T08:45:43.242Z,24.50
2023-05-03T08:48:10.785Z,23.90
2023-05-03T08:50:42.217Z,24.40
2023-05-03T08:53:10.718Z,25.60
2023-05-03T08:55:37.800Z,24.30
2023-05-03T08:58:12.707Z,24.90
2023-05-03T09:00:41.757Z,25.40
2023-05-03T09:03:08.814Z,21.70
2023-05-03T09:05:38.712Z,22.80
2023-05-03T09:08:07.151Z,19.70
2023-05-03T09:10:37.895Z,19.50
2023-05-03T09:13:04.666Z,18.90
2023-05-03T09:15:31.489Z,19.30
2023-05-03T09:18:11.714Z,21.30
2023-05-03T09:20:40.774Z,20.50
2023-05-03T09:23:10.634Z,21.50
2023-05-03T09:25:52.902Z,20.10
2023-05-03T09:28:20.395Z,18.70
2023-05-03T09:30:48.676Z,17.10
2023-05-03T09:33:21.074Z,18.00
2023-05-03T09:35:58.674Z,20.30
2023-05-03T09:38:31.021Z,19.80
2023-05-03T09:40:58.507Z,19.30
2023-05-03T09:43:25.566Z,20.80
2023-05-03T09:45:52.633Z,21.20
2023-05-03T09:48:23.664Z,19.80
2023-05-03T09:50:51.592Z,17.40
2023-05-03T09:53:21.738Z,19.90
2023-05-03T09:55:51.013Z,19.10
2023-05-03T09:58:19.056Z,17.30
2023-05-03T10:00:51.079Z,18.70
2023-05-03T10:03:28.551Z,20.10
2023-05-03T10:05:56.355Z,17.50
2023-05-03T10:08:26.351Z,20.90
2023-05-03T10:10:54.230Z,20.40
2023-05-03T10:13:24.764Z,18.50
2023-05-03T10:15:58.979Z,16.10
2023-05-03T10:18:29.821Z,17.40
2023-05-03T10:21:08.499Z,17.20
2023-05-03T10:23:35.085Z,17.80
2023-05-03T10:26:07.593Z,18.50
2023-05-03T10:28:34.463Z,21.00
2023-05-03T10:31:02.031Z,16.50
2023-05-03T10:33:35.018Z,15.30
2023-05-03T10:36:13.142Z,15.20
2023-05-03T10:38:39.876Z,19.50
2023-05-03T10:41:07.226Z,17.00
2023-05-03T10:43:34.025Z,14.90
2023-05-03T10:46:01.329Z,15.80
2023-05-03T10:48:28.752Z,16.30
2023-05-03T10:50:57.251Z,17.00
2023-05-03T10:53:41.247Z,16.00
2023-05-03T10:56:10.953Z,14.20
2023-05-03T10:58:49.934Z,19.10
2023-05-03T11:01:18.293Z,16.40
2023-05-03T11:04:09.414Z,17.90
2023-05-03T11:06:37.193Z,17.30
2023-05-03T11:09:09.380Z,17.20
2023-05-03T11:11:39.312Z,16.50
2023-05-03T11:14:06.912Z,15.30
2023-05-03T11:16:34.020Z,18.20
2023-05-03T11:19:02.597Z,15.80
2023-05-03T11:21:29.449Z,14.90
2023-05-03T11:23:58.575Z,17.00
2023-05-03T11:26:26.498Z,15.90
2023-05-03T11:28:54.485Z,16.20
2023-05-03T11:31:22.532Z,16.20
2023-05-03T11:33:49.753Z,15.40
2023-05-03T11:36:16.699Z,18.40
2023-05-03T11:38:43.577Z,16.00
2023-05-03T11:41:14.982Z,19.00
2023-05-03T11:43:46.660Z,17.40
2023-05-03T11:46:29.328Z,16.40
2023-05-03T11:48:56.719Z,16.10
2023-05-03T11:51:24.376Z,18.10
2023-05-03T11:53:51.847Z,16.60
2023-05-03T11:56:20.539Z,17.60
2023-05-03T11:59:00.626Z,15.10
2023-05-03T12:01:30.484Z,15.20
2023-05-03T12:04:02.371Z,16.60
2023-05-03T12:06:32.211Z,12.50
2023-05-03T12:09:01.364Z,14.20
2023-05-03T12:11:31.427Z,13.70
2023-05-03T12:14:02.100Z,14.60
2023-05-03T12:16:45.924Z,15.90
2023-05-03T12:19:15.682Z,15.10
2023-05-03T12:22:04.602Z,16.50
2023-05-03T12:24:38.832Z,16.10
2023-05-03T12:27:08.229Z,14.50
2023-05-03T12:29:35.712Z,14.60
2023-05-03T12:32:03.845Z,14.00
2023-05-03T12:34:35.072Z,14.20
2023-05-03T12:37:05.645Z,14.30
2023-05-03T12:39:33.733Z,16.10
2023-05-03T12:44:35.111Z,13.60
2023-05-03T12:47:03.264Z,14.00
2023-05-03T12:49:30.577Z,13.70
2023-05-03T12:54:33.458Z,13.60
2023-05-03T12:57:08.265Z,16.00
2023-05-03T12:59:41.910Z,13.60
2023-05-03T13:04:57.773Z,13.20
2023-05-03T13:07:32.408Z,14.10
2023-05-03T13:12:31.022Z,13.50
2023-05-03T13:14:57.865Z,13.40
2023-05-03T13:17:24.889Z,12.90
2023-05-03T13:19:53.197Z,14.40
2023-05-03T13:22:19.943Z,12.10
2023-05-03T13:24:48.052Z,12.80
2023-05-03T13:27:16.374Z,13.40
2023-05-03T13:29:43.192Z,12.20
2023-05-03T13:32:10.501Z,11.60
2023-05-03T13:34:37.540Z,14.30
2023-05-03T13:37:04.775Z,11.70
2023-05-03T13:39:31.984Z,12.00
2023-05-03T13:41:59.263Z,14.40
2023-05-03T13:44:26.138Z,14.00
2023-05-03T13:46:52.959Z,13.30
2023-05-03T13:49:19.847Z,17.00
2023-05-03T13:51:46.730Z,14.20
2023-05-03T13:54:13.381Z,12.80
2023-05-03T13:56:41.642Z,12.90
2023-05-03T13:59:11.648Z,13.10
2023-05-03T14:01:38.795Z,12.30
2023-05-03T14:04:06.021Z,13.80
2023-05-03T14:06:33.534Z,12.10
2023-05-03T14:09:01.684Z,13.00
2023-05-03T14:11:30.107Z,12.00
2023-05-03T14:13:58.317Z,12.00
2023-05-03T14:16:40.295Z,12.40
2023-05-03T14:19:10.236Z,13.10
2023-05-03T14:21:37.765Z,11.30
2023-05-03T14:24:04.893Z,13.90
2023-05-03T14:26:33.863Z,12.40
2023-05-03T14:29:00.982Z,12.10
2023-05-03T14:31:27.839Z,14.70
2023-05-03T14:33:55.228Z,15.60
2023-05-03T14:36:22.058Z,14.40
2023-05-03T14:38:48.909Z,11.50
2023-05-03T14:41:15.559Z,10.70
2023-05-03T14:43:42.224Z,12.20
2023-05-03T14:46:09.881Z,11.70
2023-05-03T14:48:37.915Z,12.30
2023-05-03T14:51:05.113Z,12.10
2023-05-03T14:53:31.817Z,11.90
2023-05-03T14:55:58.493Z,12.10
2023-05-03T14:58:25.320Z,11.00
2023-05-03T15:00:51.965Z,11.20
2023-05-03T15:03:18.716Z,12.30
2023-05-03T15:05:50.030Z,14.00
2023-05-03T15:08:19.729Z,12.50
2023-05-03T15:10:47.660Z,10.70
2023-05-03T15:13:15.953Z,11.80
2023-05-03T15:15:43.782Z,12.40
2023-05-03T15:18:11.013Z,11.40
2023-05-03T15:20:38.577Z,11.70
2023-05-03T15:23:06.095Z,12.00
2023-05-03T15:25:33.051Z,12.70
2023-05-03T15:28:03.818Z,13.30
2023-05-03T15:30:31.552Z,12.20
2023-05-03T15:32:58.332Z,13.70
2023-05-03T15:35:25.128Z,12.50
2023-05-03T15:37:52.144Z,12.60
2023-05-03T15:40:20.444Z,12.20
2023-05-03T15:42:47.386Z,13.00
2023-05-03T15:45:15.508Z,10.80
2023-05-03T15:47:42.395Z,11.30
2023-05-03T15:50:09.588Z,11.70
2023-05-03T15:52:36.640Z,12.30
2023-05-03T15:55:03.447Z,11.30
2023-05-03T15:57:30.522Z,12.30
2023-05-03T15:59:57.423Z,11.80
2023-05-03T16:02:24.280Z,11.70
2023-05-03T16:04:51.118Z,11.10
2023-05-03T16:07:18.197Z,11.50
2023-05-03T16:09:46.079Z,11.10
2023-05-03T16:12:12.775Z,11.30
2023-05-03T16:14:39.859Z,11.20
2023-05-03T16:17:06.625Z,13.10
2023-05-03T16:19:33.380Z,12.10
2023-05-03T16:22:00.651Z,11.60
2023-05-03T16:24:28.348Z,12.90
2023-05-03T16:26:55.346Z,12.90
2023-05-03T16:29:22.106Z,13.80
2023-05-03T16:31:49.514Z,12.50
2023-05-03T16:34:16.721Z,12.90
2023-05-03T16:36:44.054Z,13.00
2023-05-03T16:39:14.819Z,13.00
2023-05-03T16:41:41.975Z,13.40
2023-05-03T16:44:09.015Z,13.90
2023-05-03T16:46:37.499Z,13.20
2023-05-03T16:49:05.145Z,13.70
2023-05-03T16:51:32.313Z,13.40
2023-05-03T16:54:00.623Z,13.80
2023-05-03T16:56:30.595Z,14.40
2023-05-03T16:58:57.291Z,14.30
2023-05-03T17:01:23.980Z,15.30
2023-05-03T17:03:50.996Z,15.30
2023-05-03T17:06:19.751Z,15.50
2023-05-03T17:08:46.557Z,15.30
2023-05-03T17:11:14.417Z,16.10
2023-05-03T17:13:41.518Z,15.80
2023-05-03T17:16:10.769Z,16.10
2023-05-03T17:18:38.964Z,15.90
2023-05-03T17:21:06.622Z,15.80
2023-05-03T17:23:35.742Z,16.70
2023-05-03T17:26:04.277Z,16.30
2023-05-03T17:28:32.581Z,16.20
2023-05-03T17:31:00.030Z,17.50
2023-05-03T17:33:27.266Z,17.70
2023-05-03T17:35:55.549Z,17.80
2023-05-03T17:38:23.040Z,18.10
2023-05-03T17:40:49.892Z,19.30
2023-05-03T17:43:17.549Z,19.80
2023-05-03T17:45:45.843Z,19.60
2023-05-03T17:48:12.818Z,19.70
2023-05-03T17:50:40.106Z,19.30
2023-05-03T17:53:07.807Z,19.50
2023-05-03T17:55:36.117Z,19.70
2023-05-03T17:58:03.273Z,19.80
2023-05-03T18:00:30.098Z,21.00
2023-05-03T18:02:56.962Z,21.30
2023-05-03T18:05:23.996Z,21.20
2023-05-03T18:07:50.760Z,21.50
2023-05-03T18:10:19.469Z,22.10
2023-05-03T18:12:46.200Z,22.50
2023-05-03T18:15:15.037Z,22.50
2023-05-03T18:17:41.924Z,23.00
2023-05-03T18:20:09.581Z,23.40
2023-05-03T18:22:37.407Z,23.70
2023-05-03T18:25:07.778Z,23.80
2023-05-03T18:27:37.410Z,24.20
2023-05-03T18:30:06.762Z,24.60
2023-05-03T18:32:34.034Z,24.90
2023-05-03T18:35:01.153Z,25.50
2023-05-03T18:37:28.432Z,25.90
2023-05-03T18:39:55.334Z,25.90
2023-05-03T18:42:22.964Z,26.30
2023-05-03T18:44:50.134Z,27.00
2023-05-03T18:47:20.774Z,27.70
2023-05-03T18:49:52.813Z,28.00
2023-05-03T18:52:20.880Z,28.50
2023-05-03T18:54:48.151Z,28.80
2023-05-03T18:57:15.136Z,29.60
2023-05-03T18:59:52.588Z,30.40
2023-05-03T19:02:30.573Z,30.60
2023-05-03T19:04:58.026Z,31.80
2023-05-03T19:07:24.949Z,32.10
2023-05-03T19:09:57.997Z,32.30
2023-05-03T19:12:25.324Z,33.30
2023-05-03T19:14:52.338Z,34.10
2023-05-03T19:17:19.080Z,34.50
2023-05-03T19:19:45.835Z,35.10
2023-05-03T19:22:12.530Z,36.10
2023-05-03T19:24:39.881Z,35.60
2023-05-03T19:27:06.609Z,36.00
2023-05-03T19:29:33.314Z,36.80
2023-05-03T19:32:00.052Z,37.20
2023-05-03T19:34:27.966Z,37.70
2023-05-03T19:36:54.754Z,38.70
2023-05-03T19:39:21.631Z,39.30
2023-05-03T19:41:48.880Z,39.60
2023-05-03T19:44:15.978Z,40.00
2023-05-03T19:46:42.755Z,41.00
2023-05-03T19:49:09.529Z,40.80
2023-05-03T19:51:36.174Z,41.50
2023-05-03T19:54:03.218Z,42.00
2023-05-03T19:56:30.368Z,42.80
2023-05-03T19:58:57.266Z,43.00
2023-05-03T20:01:24.249Z,44.90
2023-05-03T20:03:53.438Z,46.00
2023-05-03T20:06:20.637Z,46.00
2023-05-03T20:08:47.408Z,46.60
2023-05-03T20:11:14.122Z,46.90
2023-05-03T20:13:40.834Z,47.70
2023-05-03T20:16:08.349Z,47.90
2023-05-03T20:18:35.285Z,49.10
2023-05-03T20:21:03.806Z,50.10
2023-05-03T20:23:30.634Z,50.40
2023-05-03T20:25:57.471Z,51.20
2023-05-03T20:28:24.386Z,51.40
2023-05-03T20:30:51.329Z,51.60
2023-05-03T20:33:18.136Z,52.50
2023-05-03T20:35:44.904Z,52.60
2023-05-03T20:38:11.672Z,53.30
2023-05-03T20:40:38.765Z,53.90
2023-05-03T20:43:05.623Z,55.20
2023-05-03T20:45:32.367Z,55.50
2023-05-03T20:47:59.104Z,57.10
2023-05-03T20:50:25.783Z,57.40
2023-05-03T20:52:52.420Z,57.90
2023-05-03T20:55:19.190Z,57.90
2023-05-03T20:57:45.887Z,57.90
2023-05-03T21:00:13.234Z,57.80
2023-05-03T21:02:40.103Z,58.00
2023-05-03T21:05:07.129Z,58.10
2023-05-03T21:07:33.814Z,58.70
2023-05-03T21:10:00.520Z,59.40
2023-05-03T21:12:27.224Z,60.10
2023-05-03T21:14:54.082Z,60.00
2023-05-03T21:17:21.097Z,60.10
2023-05-03T21:19:47.777Z,60.90
2023-05-03T21:22:14.855Z,62.20
2023-05-03T21:24:41.576Z,62.30
2023-05-03T21:27:10.342Z,62.10
2023-05-03T21:29:37.042Z,62.60
2023-05-03T21:32:04.289Z,62.80
2023-05-03T21:34:31.028Z,63.60
2023-05-03T21:36:57.724Z,64.30
2023-05-03T21:39:24.433Z,64.80
2023-05-03T21:41:51.323Z,65.50
2023-05-03T21:44:18.584Z,65.80
2023-05-03T21:46:45.365Z,66.20
2023-05-03T21:49:12.470Z,66.40
2023-05-03T21:51:39.100Z,66.70
2023-05-03T21:54:08.838Z,66.60
2023-05-03T21:56:35.464Z,67.20
2023-05-03T21:59:02.142Z,67.80
2023-05-03T22:01:29.628Z,67.80
2023-05-03T22:03:56.500Z,68.50
2023-05-03T22:06:23.309Z,68.90
2023-05-03T22:08:49.916Z,69.10
2023-05-03T22:11:16.629Z,69.20
2023-05-03T22:13:58.806Z,69.30
2023-05-03T22:16:30.041Z,69.70
2023-05-03T22:18:56.860Z,70.20
2023-05-03T22:21:23.525Z,70.40
2023-05-03T22:23:50.169Z,71.20
2023-05-03T22:26:16.887Z,71.50
2023-05-03T22:28:44.161Z,71.50
2023-05-03T22:31:10.977Z,71.60
2023-05-03T22:33:37.582Z,72.10
2023-05-03T22:36:04.324Z,72.70
2023-05-03T22:38:31.293Z,72.60
2023-05-03T22:40:57.960Z,72.90
2023-05-03T22:43:24.575Z,73.50
2023-05-03T22:45:51.441Z,73.80
2023-05-03T22:48:18.237Z,74.10
2023-05-03T22:50:45.073Z,74.00
2023-05-03T22:53:11.964Z,74.20
2023-05-03T22:55:38.684Z,74.70
2023-05-03T22:58:05.388Z,75.20
2023-05-03T23:00:32.263Z,75.00
2023-05-03T23:02:59.286Z,75.40
2023-05-03T23:05:26.112Z,75.50
2023-05-03T23:07:52.832Z,75.90
2023-05-03T23:10:19.569Z,76.20
2023-05-03T23:12:46.217Z,76.40
2023-05-03T23:15:13.015Z,76.50
2023-05-03T23:17:39.944Z,76.70
2023-05-03T23:20:07.589Z,77.00
2023-05-03T23:22:34.775Z,77.20
2023-05-03T23:25:01.484Z,77.30
2023-05-03T23:27:28.206Z,78.00
2023-05-03T23:29:55.867Z,78.60
2023-05-03T23:32:23.001Z,78.80
2023-05-03T23:34:50.007Z,78.60
2023-05-03T23:37:16.726Z,78.50
2023-05-03T23:39:44.577Z,78.50
2023-05-03T23:42:12.228Z,78.70
2023-05-03T23:44:53.742Z,79.20
2023-05-03T23:47:22.596Z,79.00
2023-05-03T23:49:49.874Z,79.30
2023-05-03T23:52:20.337Z,79.50
2023-05-03T23:54:47.092Z,79.90
2023-05-03T23:57:13.772Z,80.00
2023-05-03T23:59:40.448Z,80.00
